Andrews, Texas
Current Conditions -  °F | °C
As of 1:35 PM on Sunday 21 Dec 2014 (Local Time) from KE11 Reporting Station
Clear Clear  
Wind Chill: 62°   Ceiling: Unl
Heat Index: 62°   Visibility: 10mi
Dew Point: 28°   Wind: 17mph
Humidity: 27%   Direction: 250°WSW
Pressure: 29.82"   Gusts: 22mph
Location:  32.32°N, 102.54°W
Report Text: KE11 211935Z AUTO 25015G19KT 10SM CLR 17/M02 A2982 RMK AO2 T01681022
Loading
Personal Weather Stations






























Interactive Weather Map New forecast layout! Learn more

10-Day Weather Forecast

Advertisements
Track Severe Weather on mobile